Accueil
METAR-TAF:

METAR-TAF

Aéroports :

Hanamaki, Japon

latitude: 39-26N, longitude: 141-08E, altitude: 90 m

Observation

Le bulletin a été fait il y a 7 heures et 55 minutes, à 10:00 UTC
Vent 3 kt de direction variable
Température 0°C
Humidité 51%
Pression 1024 hPa
Visibilité 10 km ou plus
Quelques nuages à une hauteur de 3000 ft
Nuages épars à une hauteur de 4000 ft

METAR: RJSI 241000Z VRB03KT 9999 FEW030 SCT040 00/M09 Q1024

Heure: 02:55 (17:55 UTC)

Prévision

Le bulletin a été fait il y a 50 minutes, à 17:05 UTC
Prévision valable du 24 à 18 UTC au 26 à 00 UTC
Vent 5 kt de nord
Visibilité 10 km ou plus
Quelques nuages à une hauteur de 2000 ft
Nuages épars à une hauteur de 4000 ft

TAF: RJSI 241705Z 2418/2600 01005KT 9999 FEW020 SCT040

Observations et prévisions météorologiques de plus de 4000 aéroports (messages METAR et TAF).

Les stations disponibles sont représentées par des disques jaunes et rouges sur la carte.

Passer la souris dessus pour voir le nom de la station.

Cliquer dessus pour voir les observations et prévisions météorologiques.

Pour changer de carte: cliquez sur les boutons verts avec une croix noire pour zoomer, sur le bouton vert avec un tiret pour effectuer un zoom arrière, ou sur les flèches vertes pour les cartes adjacentes.


METAR-TAF: